Terminal Aerodrome Forecast
Issued by NWS

Home | Current Version | Previous Version | Text Only | Print | Product List | Glossary Off
Versions: 1 2 3 4 5 6 7 8 9 10 11 12 13 14 15 16 17 18 19 20 21 22 23

000
FTUS42 KMHX 151700 RRA
TAFPGV
TAF
KPGV 151742Z 1518/1618 VRB03KT P6SM OVC035
     FM152000 VRB03KT P6SM BKN040
     FM160700 00000KT 5SM BR SCT007 BKN015
     FM161500 33004KT P6SM SCT040
      AMD LTD TO CLD VIS AND WIND=

USA.gov is the U.S. government's official web portal to all federal, state and local government web resources and services.